Etusivu
METAR-TAF:

METAR-TAF

Lentoasemat :

Mykolajiv, Ukraina

Leveyspiiri: 47-03-29N, Pituuspiiri: 031-55-15E, korkeus merenpinnasta: 56 m

Tämänhetkinen sää

Tämä raportti tehtiin 1 tunti ja 45 minuuttia sitten, kello 14.00 UTC
Tuuli 8 kn pohjoisesta
Lämpötila 7°C
Kosteus 45%
Ilmanpaine 1025 hPa
Näkyvyys 10 km tai enemmän
ei pilviä alle 1500 m:ssä eikä cumulonimbus-pilviä

METAR: UKON 221400Z 35004MPS CAVOK 07/M04 Q1025 R04/090075 NOSIG

Aika: 17:45 (15:45 UTC)

Sääennuste

Tämä raportti tehtiin 4 tuntia ja 42 minuuttia sitten, kello 11.03 UTC
Ennuste voimassa 22. päivästä klo 12 UTC - 22. päivään klo 21 UTC
Tuuli 12 kn pohjoisesta
Näkyvyys 10 km tai enemmän
Hajonneita pilviä 700 ft:n korkeudessa
Hajanaisia pilviä 2000 ft:n korkeudessa, Cumulonimbus.

TAF: UKON 221103Z 2212/2221 36006MPS 9999 BKN007 SCT020CB TX08/2212Z TN01/2221Z

Säähavainnot ja -ennusteet yli 4000 lentoasemalta (METAR- ja TAF-raportit).

Käytössä olevat sääasemat on merkitty karttaan keltaisilla ja punaisilla pisteillä.

Aseta hiiri pisteen päälle nähdäksesi sääaseman nimen.

Klikkaa sitten nähdäksesi säähavainnot ja -ennusteet.

Kartan vaihtaminen: klikkaa mustalla rastilla varustettuja vihreitä pisteitä, niin voit zoomata sisään; viivalla varustettua vihreää pistettä, niin voit zoomata ulos tai vihreitä nuolia, niin pääset viereisille kartoille.


METAR-TAF: